createdAt,value
2022-12-26T00:00:51.731Z,0.00
2022-12-26T00:01:51.809Z,0.00
2022-12-26T00:02:52.068Z,0.00
2022-12-26T00:03:52.435Z,0.00
2022-12-26T00:04:53.696Z,0.00
2022-12-26T00:05:52.497Z,0.00
2022-12-26T00:06:52.633Z,0.00
2022-12-26T00:07:52.851Z,0.00
2022-12-26T00:08:53.016Z,0.00
2022-12-26T00:09:53.230Z,0.00
2022-12-26T00:10:53.371Z,0.00
2022-12-26T00:11:53.570Z,0.00
2022-12-26T00:12:53.715Z,0.00
2022-12-26T00:13:53.900Z,0.00
2022-12-26T00:14:54.082Z,0.00
2022-12-26T00:15:54.298Z,0.00
2022-12-26T00:16:54.441Z,0.00
2022-12-26T00:17:54.623Z,0.00
2022-12-26T00:18:54.831Z,0.00
2022-12-26T00:19:54.989Z,0.00
2022-12-26T00:20:55.173Z,0.00
2022-12-26T00:21:55.378Z,0.00
2022-12-26T00:22:55.511Z,0.00
2022-12-26T00:23:55.721Z,0.00
2022-12-26T00:24:55.908Z,0.00
2022-12-26T00:25:56.149Z,0.00
2022-12-26T00:26:56.280Z,0.00
2022-12-26T00:27:56.464Z,0.00
2022-12-26T00:28:56.603Z,0.00
2022-12-26T00:29:56.799Z,0.00
2022-12-26T00:30:56.968Z,0.00
2022-12-26T00:31:57.200Z,0.00
2022-12-26T00:32:57.275Z,0.00
2022-12-26T00:33:57.479Z,0.00
2022-12-26T00:34:57.620Z,0.00
2022-12-26T00:35:57.813Z,0.00
2022-12-26T00:36:57.988Z,0.00
2022-12-26T00:37:58.168Z,0.00
2022-12-26T00:38:58.320Z,0.00
2022-12-26T00:39:58.501Z,0.00
2022-12-26T00:40:58.719Z,0.00
2022-12-26T00:41:58.861Z,0.00
2022-12-26T00:42:59.044Z,0.00
2022-12-26T00:43:59.227Z,0.00
2022-12-26T00:44:59.401Z,0.00
2022-12-26T00:45:59.699Z,0.00
2022-12-26T00:46:59.871Z,0.00
2022-12-26T00:47:59.921Z,0.00
2022-12-26T00:49:00.093Z,0.00
2022-12-26T00:50:13.864Z,0.00
2022-12-26T00:51:01.475Z,0.00
2022-12-26T00:52:00.600Z,0.00
2022-12-26T00:53:00.800Z,0.00
2022-12-26T00:54:00.974Z,0.00
2022-12-26T00:55:01.155Z,0.00
2022-12-26T00:56:01.363Z,0.00
2022-12-26T00:57:01.552Z,0.00
2022-12-26T00:58:01.715Z,0.00
2022-12-26T00:59:01.875Z,0.00
2022-12-26T01:00:02.084Z,0.00
2022-12-26T01:01:02.253Z,0.00
2022-12-26T01:02:02.669Z,0.00
2022-12-26T01:03:02.764Z,0.00
2022-12-26T01:04:02.750Z,0.00
2022-12-26T01:05:02.905Z,0.00
2022-12-26T01:06:03.050Z,0.00
2022-12-26T01:07:03.248Z,0.00
2022-12-26T01:08:22.342Z,0.00
2022-12-26T01:09:04.572Z,0.00
2022-12-26T01:10:03.738Z,0.00
2022-12-26T01:11:03.910Z,0.00
2022-12-26T01:12:04.069Z,0.00
2022-12-26T01:13:04.213Z,0.00
2022-12-26T01:14:04.417Z,0.00
2022-12-26T01:15:04.597Z,0.00
2022-12-26T01:16:04.872Z,0.00
2022-12-26T01:17:04.970Z,0.00
2022-12-26T01:18:05.104Z,0.00
2022-12-26T01:19:05.285Z,0.00
2022-12-26T01:20:05.498Z,0.00
2022-12-26T01:21:05.663Z,0.00
2022-12-26T01:22:05.854Z,0.00
2022-12-26T01:23:05.997Z,0.00
2022-12-26T01:24:06.184Z,0.00
2022-12-26T01:25:06.388Z,0.00
2022-12-26T01:26:16.528Z,0.00
2022-12-26T01:27:07.697Z,0.00
2022-12-26T01:28:06.880Z,0.00
2022-12-26T01:29:07.036Z,0.00
2022-12-26T01:30:07.220Z,0.00
2022-12-26T01:31:07.590Z,0.00
2022-12-26T01:32:07.685Z,0.00
2022-12-26T01:33:07.781Z,0.00
2022-12-26T01:34:07.921Z,0.00
2022-12-26T01:35:08.106Z,0.00
2022-12-26T01:36:08.289Z,0.00
2022-12-26T01:37:08.472Z,0.00
2022-12-26T01:38:08.674Z,0.00
2022-12-26T01:39:08.865Z,0.00
2022-12-26T01:40:08.999Z,0.00
2022-12-26T01:41:09.144Z,0.00
2022-12-26T01:42:09.331Z,0.00
2022-12-26T01:43:09.586Z,0.00
2022-12-26T01:44:09.688Z,0.00
2022-12-26T01:45:09.859Z,0.00
2022-12-26T01:46:10.097Z,0.00
2022-12-26T01:47:10.210Z,0.00
2022-12-26T01:48:10.444Z,0.00
2022-12-26T01:49:10.582Z,0.00
2022-12-26T01:50:10.763Z,0.00
2022-12-26T01:51:10.949Z,0.00
2022-12-26T01:52:11.126Z,0.00
2022-12-26T01:53:11.355Z,0.00
2022-12-26T01:54:40.247Z,0.00
2022-12-26T01:55:12.634Z,0.00
2022-12-26T01:56:11.820Z,0.00
2022-12-26T01:57:11.989Z,0.00
2022-12-26T01:58:12.196Z,0.00
2022-12-26T01:59:12.338Z,0.00
2022-12-26T02:00:12.552Z,0.00
2022-12-26T02:01:12.816Z,0.00
2022-12-26T02:02:13.054Z,0.00
2022-12-26T02:03:13.215Z,0.00
2022-12-26T02:04:13.265Z,0.00
2022-12-26T02:05:13.455Z,0.00
2022-12-26T02:06:13.636Z,0.00
2022-12-26T02:07:13.799Z,0.00
2022-12-26T02:08:14.018Z,0.00
2022-12-26T02:09:14.182Z,0.00
2022-12-26T02:10:14.336Z,0.00
2022-12-26T02:11:14.510Z,0.00
2022-12-26T02:12:34.165Z,0.00
2022-12-26T02:13:15.891Z,0.00
2022-12-26T02:14:15.067Z,0.00
2022-12-26T02:15:15.284Z,0.00
2022-12-26T02:16:15.440Z,0.00
2022-12-26T02:17:15.580Z,0.00
2022-12-26T02:18:15.763Z,0.00
2022-12-26T02:19:15.954Z,0.00
2022-12-26T02:20:16.109Z,0.00
2022-12-26T02:21:16.297Z,0.00
2022-12-26T02:22:16.484Z,0.00
2022-12-26T02:23:16.685Z,0.00
2022-12-26T02:24:16.842Z,0.00
2022-12-26T02:25:16.986Z,0.00
2022-12-26T02:26:17.208Z,0.00
2022-12-26T02:27:17.351Z,0.00
2022-12-26T02:28:17.520Z,0.00
2022-12-26T02:29:17.721Z,0.00
2022-12-26T02:30:17.870Z,0.00
2022-12-26T02:31:18.143Z,0.00
2022-12-26T02:32:18.368Z,0.00
2022-12-26T02:33:18.395Z,0.00
2022-12-26T02:34:18.612Z,0.00
2022-12-26T02:35:18.736Z,0.00
2022-12-26T02:36:18.926Z,0.00
2022-12-26T02:37:19.125Z,0.00
2022-12-26T02:38:19.258Z,0.00
2022-12-26T02:39:45.499Z,0.00
2022-12-26T02:40:20.699Z,0.00
2022-12-26T02:41:19.807Z,0.00
2022-12-26T02:42:20.007Z,0.00
2022-12-26T02:43:20.181Z,0.00
2022-12-26T02:44:20.409Z,0.00
2022-12-26T02:45:20.529Z,0.00
2022-12-26T02:46:20.785Z,0.00
2022-12-26T02:47:20.897Z,0.00
2022-12-26T02:48:21.086Z,0.00
2022-12-26T02:49:21.304Z,0.00
2022-12-26T02:50:21.448Z,0.00
2022-12-26T02:51:21.623Z,0.00
2022-12-26T02:52:21.811Z,0.00
2022-12-26T02:53:22.002Z,0.00
2022-12-26T02:54:22.193Z,0.00
2022-12-26T02:55:22.355Z,0.00
2022-12-26T02:56:22.501Z,0.00
2022-12-26T02:57:22.661Z,0.00
2022-12-26T02:58:22.850Z,0.00
2022-12-26T02:59:53.572Z,0.00
2022-12-26T03:00:24.203Z,0.00
2022-12-26T03:01:23.418Z,0.00
2022-12-26T03:02:23.697Z,0.00
2022-12-26T03:03:23.768Z,0.00
2022-12-26T03:04:23.910Z,0.00
2022-12-26T03:05:24.086Z,0.00
2022-12-26T03:06:24.230Z,0.00
2022-12-26T03:07:24.414Z,0.00
2022-12-26T03:08:24.612Z,0.00
2022-12-26T03:09:24.778Z,0.00
2022-12-26T03:10:24.968Z,0.00
2022-12-26T03:11:25.116Z,0.00
2022-12-26T03:12:25.298Z,0.00
2022-12-26T03:13:25.484Z,0.00
2022-12-26T03:14:25.692Z,0.00
2022-12-26T03:15:25.838Z,0.00
2022-12-26T03:16:26.096Z,0.00
2022-12-26T03:17:26.200Z,0.00
2022-12-26T03:18:59.473Z,0.00
2022-12-26T03:19:27.591Z,0.00
2022-12-26T03:20:26.706Z,0.00
2022-12-26T03:21:26.886Z,0.00
2022-12-26T03:22:27.069Z,0.00
2022-12-26T03:23:27.253Z,0.00
2022-12-26T03:24:27.439Z,0.00
2022-12-26T03:25:27.629Z,0.00
2022-12-26T03:26:27.812Z,0.00
2022-12-26T03:27:27.954Z,0.00
2022-12-26T03:28:28.154Z,0.00
2022-12-26T03:29:28.358Z,0.00
2022-12-26T03:30:28.548Z,0.00
2022-12-26T03:31:28.689Z,0.00
2022-12-26T03:32:28.859Z,0.00
2022-12-26T03:33:29.081Z,0.00
2022-12-26T03:34:29.246Z,0.00
2022-12-26T03:35:29.383Z,0.00
2022-12-26T03:36:29.587Z,0.00
2022-12-26T03:37:48.605Z,0.00
2022-12-26T03:38:30.924Z,0.00
2022-12-26T03:39:30.103Z,0.00
2022-12-26T03:40:30.255Z,0.00
2022-12-26T03:41:31.972Z,0.00
2022-12-26T03:42:30.597Z,0.00
2022-12-26T03:43:30.780Z,0.00
2022-12-26T03:44:30.952Z,0.00
2022-12-26T03:45:31.125Z,0.00
2022-12-26T03:46:31.330Z,0.00
2022-12-26T03:47:31.520Z,0.00
2022-12-26T03:48:31.691Z,0.00
2022-12-26T03:49:31.857Z,0.00
2022-12-26T03:50:32.032Z,0.00
2022-12-26T03:51:32.225Z,0.00
2022-12-26T03:52:32.446Z,0.00
2022-12-26T03:53:32.577Z,0.00
2022-12-26T03:54:32.779Z,0.00
2022-12-26T03:55:32.948Z,0.00
2022-12-26T03:56:33.185Z,0.00
2022-12-26T03:57:33.317Z,0.00
2022-12-26T03:58:33.499Z,0.00
2022-12-26T03:59:33.725Z,0.00
2022-12-26T04:00:33.865Z,0.00
2022-12-26T04:01:34.129Z,0.00
2022-12-26T04:02:34.300Z,0.00
2022-12-26T04:03:34.424Z,0.00
2022-12-26T04:04:34.564Z,0.00
2022-12-26T04:05:34.780Z,0.00
2022-12-26T04:06:34.919Z,0.00
2022-12-26T04:07:35.080Z,0.00
2022-12-26T04:08:35.260Z,0.00
2022-12-26T04:09:35.409Z,0.00
2022-12-26T04:10:35.622Z,0.00
2022-12-26T04:11:35.790Z,0.00
2022-12-26T04:12:35.954Z,0.00
2022-12-26T04:13:36.132Z,0.00
2022-12-26T04:14:36.321Z,0.00
2022-12-26T04:15:36.553Z,0.00
2022-12-26T04:16:36.687Z,0.00
2022-12-26T04:17:36.873Z,0.00
2022-12-26T04:18:37.056Z,0.00
2022-12-26T04:19:37.232Z,0.00
2022-12-26T04:20:37.457Z,0.00
2022-12-26T04:21:37.582Z,0.00
2022-12-26T04:22:37.775Z,0.00
2022-12-26T04:23:37.916Z,0.00
2022-12-26T04:24:38.111Z,0.00
2022-12-26T04:25:50.689Z,0.00
2022-12-26T04:26:39.460Z,0.00
2022-12-26T04:27:38.630Z,0.00
2022-12-26T04:28:38.824Z,0.00
2022-12-26T04:29:38.967Z,0.00
2022-12-26T04:30:39.145Z,0.00
2022-12-26T04:31:39.412Z,0.00
2022-12-26T04:32:39.516Z,0.00
2022-12-26T04:33:39.720Z,0.00
2022-12-26T04:34:39.903Z,0.00
2022-12-26T04:35:40.098Z,0.00
2022-12-26T04:36:40.215Z,0.00
2022-12-26T04:37:40.406Z,0.00
2022-12-26T04:38:40.661Z,0.00
2022-12-26T04:39:40.776Z,0.00
2022-12-26T04:40:40.938Z,0.00
2022-12-26T04:41:41.145Z,0.00
2022-12-26T04:42:41.280Z,0.00
2022-12-26T04:43:50.008Z,0.00
2022-12-26T04:44:42.643Z,0.00
2022-12-26T04:45:41.831Z,0.00
2022-12-26T04:46:42.047Z,0.00
2022-12-26T04:47:42.210Z,0.00
2022-12-26T04:48:42.352Z,0.00
2022-12-26T04:49:42.498Z,0.00
2022-12-26T04:50:42.680Z,0.00
2022-12-26T04:51:42.870Z,0.00
2022-12-26T04:52:43.042Z,0.00
2022-12-26T04:53:44.013Z,0.00
2022-12-26T04:54:43.419Z,0.00
2022-12-26T04:55:43.595Z,0.00
2022-12-26T04:56:43.762Z,0.00
2022-12-26T04:57:43.974Z,0.00
2022-12-26T04:58:44.146Z,0.00
2022-12-26T04:59:44.338Z,0.00
2022-12-26T05:00:44.509Z,0.00
2022-12-26T05:01:44.811Z,0.00
2022-12-26T05:02:45.000Z,0.00
2022-12-26T05:03:45.096Z,0.00
2022-12-26T05:04:45.222Z,0.00
2022-12-26T05:07:00.459Z,0.00
2022-12-26T05:08:00.662Z,0.00
2022-12-26T05:09:00.868Z,0.00
2022-12-26T05:10:00.985Z,0.00
2022-12-26T05:11:01.182Z,0.00
2022-12-26T05:12:01.360Z,0.00
2022-12-26T05:13:01.540Z,0.00
2022-12-26T05:14:01.771Z,0.00
2022-12-26T05:15:01.899Z,0.00
2022-12-26T05:16:02.185Z,0.00
2022-12-26T05:17:02.272Z,0.00
2022-12-26T05:18:02.465Z,0.00
2022-12-26T05:19:02.649Z,0.00
2022-12-26T05:20:02.833Z,0.00
2022-12-26T05:21:03.007Z,0.00
2022-12-26T05:22:03.165Z,0.00
2022-12-26T05:23:03.342Z,0.00
2022-12-26T05:24:03.625Z,0.00
2022-12-26T05:25:03.681Z,0.00
2022-12-26T05:26:03.876Z,0.00
2022-12-26T05:27:04.007Z,0.00
2022-12-26T05:28:04.202Z,0.00
2022-12-26T05:29:04.392Z,0.00
2022-12-26T05:30:04.569Z,0.00
2022-12-26T05:31:04.802Z,0.00
2022-12-26T05:32:04.919Z,0.00
2022-12-26T05:33:05.112Z,0.00
2022-12-26T05:34:05.297Z,0.00
2022-12-26T05:35:05.480Z,0.00
2022-12-26T05:36:05.696Z,0.00
2022-12-26T05:37:05.832Z,0.00
2022-12-26T05:38:06.055Z,0.00
2022-12-26T05:39:06.193Z,0.00
2022-12-26T05:40:06.365Z,0.00
2022-12-26T05:41:06.553Z,0.00
2022-12-26T05:42:06.767Z,0.00
2022-12-26T05:43:06.892Z,0.00
2022-12-26T05:44:07.099Z,0.00
2022-12-26T05:45:07.283Z,0.00
2022-12-26T05:46:07.514Z,0.00
2022-12-26T05:47:07.613Z,0.00
2022-12-26T05:48:07.795Z,0.00
2022-12-26T05:49:07.971Z,0.00
2022-12-26T05:50:08.161Z,0.00
2022-12-26T05:51:08.388Z,0.00
2022-12-26T05:52:08.516Z,0.00
2022-12-26T05:53:08.710Z,0.00
2022-12-26T05:54:08.897Z,0.00
2022-12-26T05:55:09.061Z,0.00
2022-12-26T05:56:09.271Z,0.00
2022-12-26T05:57:09.400Z,0.00
2022-12-26T05:58:09.606Z,0.00
2022-12-26T05:59:09.786Z,0.00
2022-12-26T06:00:09.939Z,0.00
2022-12-26T06:01:10.264Z,0.00
2022-12-26T06:02:10.419Z,0.00
2022-12-26T06:03:10.552Z,0.00
2022-12-26T06:04:10.653Z,0.00
2022-12-26T06:05:10.788Z,0.00
2022-12-26T06:06:11.011Z,0.00
2022-12-26T06:07:11.140Z,0.00
2022-12-26T06:08:11.336Z,0.00
2022-12-26T06:09:11.550Z,0.00
2022-12-26T06:10:11.697Z,0.00
2022-12-26T06:11:11.885Z,0.00
2022-12-26T06:12:12.068Z,0.00
2022-12-26T06:13:12.237Z,0.00
2022-12-26T06:14:12.439Z,0.00
2022-12-26T06:15:12.612Z,0.00
2022-12-26T06:16:12.908Z,0.00
2022-12-26T06:17:12.960Z,0.00
2022-12-26T06:18:13.152Z,0.00
2022-12-26T06:19:13.345Z,0.00
2022-12-26T06:20:13.584Z,0.00
2022-12-26T06:21:13.680Z,0.00
2022-12-26T06:22:13.879Z,0.00
2022-12-26T06:23:14.059Z,0.00
2022-12-26T06:24:14.260Z,0.00
2022-12-26T06:25:14.416Z,0.00
2022-12-26T06:26:14.600Z,0.00
2022-12-26T06:27:14.804Z,0.00
2022-12-26T06:28:15.000Z,0.00
2022-12-26T06:29:15.136Z,0.00
2022-12-26T06:30:15.337Z,0.00
2022-12-26T06:31:15.574Z,0.00
2022-12-26T06:32:15.688Z,0.00
2022-12-26T06:33:15.888Z,0.00
2022-12-26T06:34:16.033Z,0.00
2022-12-26T06:35:16.215Z,0.00
2022-12-26T06:36:16.401Z,0.00
2022-12-26T06:37:16.575Z,0.00
2022-12-26T06:38:16.781Z,0.00
2022-12-26T06:39:16.924Z,0.00
2022-12-26T06:40:17.113Z,0.00
2022-12-26T06:41:17.293Z,0.00
2022-12-26T06:42:17.468Z,0.00
2022-12-26T06:43:17.670Z,0.00
2022-12-26T06:44:18.648Z,0.00
2022-12-26T06:45:18.005Z,0.00
2022-12-26T06:46:18.237Z,0.00
2022-12-26T06:47:18.375Z,0.00
2022-12-26T06:48:18.566Z,0.00
2022-12-26T06:49:18.709Z,0.00
2022-12-26T06:50:18.903Z,0.00
2022-12-26T06:51:19.103Z,0.00
2022-12-26T06:52:19.309Z,0.00
2022-12-26T06:53:19.427Z,0.00
2022-12-26T06:54:19.621Z,0.00
2022-12-26T06:55:19.796Z,0.00
2022-12-26T06:56:19.993Z,0.00
2022-12-26T06:57:20.138Z,0.00
2022-12-26T06:58:20.335Z,0.00
2022-12-26T06:59:20.507Z,0.00
2022-12-26T07:00:20.700Z,0.00
2022-12-26T07:01:20.989Z,0.00
2022-12-26T07:02:21.140Z,0.00
2022-12-26T07:03:21.251Z,0.00
2022-12-26T07:04:21.445Z,0.00
2022-12-26T07:05:21.612Z,0.00
2022-12-26T07:06:21.801Z,0.00
2022-12-26T07:07:21.971Z,0.00
2022-12-26T07:08:22.181Z,0.00
2022-12-26T07:09:22.331Z,0.00
2022-12-26T07:10:22.523Z,0.00
2022-12-26T07:11:22.760Z,0.00
2022-12-26T07:12:22.891Z,0.00
2022-12-26T07:13:23.078Z,0.00
2022-12-26T07:14:23.220Z,0.00
2022-12-26T07:15:23.414Z,0.00
2022-12-26T07:16:23.624Z,0.00
2022-12-26T07:17:23.715Z,0.00
2022-12-26T07:18:23.887Z,0.00
2022-12-26T07:19:24.034Z,0.00
2022-12-26T07:20:24.238Z,0.00
2022-12-26T07:21:24.417Z,0.00
2022-12-26T07:22:24.559Z,0.00
2022-12-26T07:23:24.759Z,0.00
2022-12-26T07:24:24.903Z,0.00
2022-12-26T07:25:25.071Z,0.00
2022-12-26T07:26:25.259Z,0.00
2022-12-26T07:27:25.425Z,0.00
2022-12-26T07:28:25.567Z,0.00
2022-12-26T07:29:25.773Z,0.00
2022-12-26T07:30:25.956Z,0.00
2022-12-26T07:31:26.103Z,0.00
2022-12-26T07:32:26.277Z,0.00
2022-12-26T07:33:26.441Z,0.00
2022-12-26T07:34:31.402Z,0.00
2022-12-26T07:35:27.836Z,0.00
2022-12-26T07:36:26.977Z,0.00
2022-12-26T07:37:27.117Z,0.00
2022-12-26T07:38:27.280Z,0.00
2022-12-26T07:39:27.448Z,0.00
2022-12-26T07:40:27.601Z,0.00
2022-12-26T07:41:27.782Z,0.00
2022-12-26T07:42:27.976Z,0.00
2022-12-26T07:43:28.110Z,0.00
2022-12-26T07:44:28.279Z,0.00
2022-12-26T07:45:28.487Z,0.00
2022-12-26T07:46:28.638Z,0.00
2022-12-26T07:47:28.785Z,0.00
2022-12-26T07:48:28.953Z,0.00
2022-12-26T07:49:29.113Z,0.00
2022-12-26T07:50:29.297Z,0.00
2022-12-26T07:51:29.458Z,0.00
2022-12-26T07:52:29.618Z,0.00
2022-12-26T07:53:29.783Z,0.00
2022-12-26T07:54:29.989Z,0.00
2022-12-26T07:55:30.166Z,5.62
2022-12-26T07:56:30.295Z,5.62
2022-12-26T07:57:48.311Z,5.62
2022-12-26T07:58:31.615Z,5.62
2022-12-26T07:59:30.784Z,5.62
2022-12-26T08:00:30.962Z,5.62
2022-12-26T08:01:31.286Z,5.62
2022-12-26T08:02:31.509Z,5.62
2022-12-26T08:03:31.472Z,5.62
2022-12-26T08:04:31.637Z,5.62
2022-12-26T08:05:31.827Z,0.00
2022-12-26T08:06:31.996Z,0.00
2022-12-26T08:07:32.168Z,0.00
2022-12-26T08:08:32.327Z,0.00
2022-12-26T08:09:32.499Z,5.62
2022-12-26T08:10:32.679Z,5.62
2022-12-26T08:11:32.913Z,5.62
2022-12-26T08:12:32.977Z,5.62
2022-12-26T08:13:33.164Z,5.62
2022-12-26T08:14:33.325Z,5.62
2022-12-26T08:15:33.510Z,5.62
2022-12-26T08:16:33.720Z,5.62
2022-12-26T08:17:33.864Z,5.62
2022-12-26T08:18:34.024Z,11.25
2022-12-26T08:19:34.199Z,11.25
2022-12-26T08:20:34.364Z,11.25
2022-12-26T08:21:34.552Z,11.25
2022-12-26T08:22:34.721Z,11.25
2022-12-26T08:23:34.871Z,11.25
2022-12-26T08:24:35.027Z,11.25
2022-12-26T08:25:35.232Z,11.25
2022-12-26T08:26:35.401Z,11.25
2022-12-26T08:27:35.581Z,11.25
2022-12-26T08:28:35.730Z,11.25
2022-12-26T08:29:35.979Z,11.25
2022-12-26T08:30:36.155Z,11.25
2022-12-26T08:31:36.286Z,11.25
2022-12-26T08:32:39.440Z,11.25
2022-12-26T08:33:37.649Z,11.25
2022-12-26T08:34:36.825Z,11.25
2022-12-26T08:35:36.981Z,11.25
2022-12-26T08:36:37.134Z,11.25
2022-12-26T08:37:37.330Z,11.25
2022-12-26T08:38:37.510Z,11.25
2022-12-26T08:39:37.698Z,11.25
2022-12-26T08:40:45.008Z,11.25
2022-12-26T08:41:39.042Z,11.25
2022-12-26T08:42:44.665Z,16.88
2022-12-26T08:44:16.547Z,16.88
2022-12-26T08:44:39.566Z,16.88
2022-12-26T08:45:38.808Z,16.88
2022-12-26T08:46:38.907Z,16.88
2022-12-26T08:47:39.079Z,16.88
2022-12-26T08:48:39.238Z,16.88
2022-12-26T08:49:39.388Z,16.88
2022-12-26T08:50:41.395Z,16.88
2022-12-26T08:51:39.726Z,16.88
2022-12-26T08:52:39.894Z,16.88
2022-12-26T08:53:40.091Z,16.88
2022-12-26T08:54:40.270Z,16.88
2022-12-26T08:55:40.439Z,16.88
2022-12-26T08:56:40.648Z,16.88
2022-12-26T08:57:40.816Z,16.88
2022-12-26T08:58:41.010Z,16.88
2022-12-26T08:59:41.152Z,22.50
2022-12-26T09:00:41.320Z,22.50
2022-12-26T09:01:41.557Z,22.50
2022-12-26T09:02:41.763Z,22.50
2022-12-26T09:03:41.838Z,16.88
2022-12-26T09:04:42.028Z,16.88
2022-12-26T09:05:42.178Z,16.88
2022-12-26T09:06:42.326Z,16.88
2022-12-26T09:07:42.493Z,16.88
2022-12-26T09:08:42.674Z,16.88
2022-12-26T09:09:42.820Z,16.88
2022-12-26T09:10:43.009Z,11.25
2022-12-26T09:11:43.170Z,11.25
2022-12-26T09:12:43.312Z,16.88
2022-12-26T09:13:43.513Z,16.88
2022-12-26T09:14:43.701Z,16.88
2022-12-26T09:15:43.845Z,16.88
2022-12-26T09:16:49.528Z,16.88
2022-12-26T09:17:45.180Z,16.88
2022-12-26T09:18:44.344Z,16.88
2022-12-26T09:19:44.547Z,16.88
2022-12-26T09:20:44.712Z,16.88
2022-12-26T09:21:44.886Z,16.88
2022-12-26T09:22:45.037Z,16.88
2022-12-26T09:23:45.233Z,16.88
2022-12-26T09:24:45.413Z,16.88
2022-12-26T09:25:45.568Z,16.88
2022-12-26T09:26:45.744Z,16.88
2022-12-26T09:27:45.894Z,16.88
2022-12-26T09:28:46.047Z,16.88
2022-12-26T09:29:46.257Z,16.88
2022-12-26T09:30:46.418Z,16.88
2022-12-26T09:31:46.577Z,16.88
2022-12-26T09:32:46.731Z,16.88
2022-12-26T09:33:46.939Z,16.88
2022-12-26T09:34:47.114Z,16.88
2022-12-26T09:35:47.254Z,16.88
2022-12-26T09:36:47.421Z,16.88
2022-12-26T09:37:47.580Z,22.50
2022-12-26T09:38:47.737Z,22.50
2022-12-26T09:39:47.955Z,22.50
2022-12-26T09:40:48.107Z,22.50
2022-12-26T09:41:48.310Z,28.12
2022-12-26T09:42:48.456Z,28.12
2022-12-26T09:43:50.306Z,28.12
2022-12-26T09:44:48.838Z,28.12
2022-12-26T09:45:49.067Z,28.12
2022-12-26T09:46:49.163Z,28.12
2022-12-26T09:47:49.312Z,28.12
2022-12-26T09:48:49.477Z,39.38
2022-12-26T09:49:49.665Z,45.00
2022-12-26T09:50:49.833Z,45.00
2022-12-26T09:51:49.992Z,39.38
2022-12-26T09:52:50.156Z,33.75
2022-12-26T09:53:50.338Z,33.75
2022-12-26T09:54:50.506Z,33.75
2022-12-26T09:55:50.638Z,39.38
2022-12-26T09:57:02.174Z,39.38
2022-12-26T09:57:51.985Z,39.38
2022-12-26T09:58:51.155Z,33.75
2022-12-26T09:59:51.353Z,28.12
2022-12-26T10:00:51.497Z,28.12
2022-12-26T10:01:51.705Z,22.50
2022-12-26T10:02:51.816Z,16.88
2022-12-26T10:03:51.979Z,22.50
2022-12-26T10:04:52.241Z,22.50
2022-12-26T10:05:52.327Z,22.50
2022-12-26T10:06:52.490Z,28.12
2022-12-26T10:07:52.707Z,28.12
2022-12-26T10:08:52.870Z,28.12
2022-12-26T10:09:53.067Z,33.75
2022-12-26T10:10:53.182Z,33.75
2022-12-26T10:11:53.351Z,28.12
2022-12-26T10:12:53.508Z,28.12
2022-12-26T10:13:53.679Z,28.12
2022-12-26T10:14:53.891Z,28.12
2022-12-26T10:15:54.069Z,22.50
2022-12-26T10:16:54.180Z,22.50
2022-12-26T10:17:54.335Z,22.50
2022-12-26T10:18:54.532Z,22.50
2022-12-26T10:19:54.712Z,22.50
2022-12-26T10:20:54.891Z,22.50
2022-12-26T10:21:55.065Z,22.50
2022-12-26T10:22:55.217Z,22.50
2022-12-26T10:23:55.373Z,22.50
2022-12-26T10:24:55.547Z,22.50
2022-12-26T10:25:55.736Z,22.50
2022-12-26T10:26:55.894Z,22.50
2022-12-26T10:27:56.096Z,22.50
2022-12-26T10:28:56.274Z,22.50
2022-12-26T10:29:56.463Z,22.50
2022-12-26T10:30:56.694Z,22.50
2022-12-26T10:31:56.847Z,22.50
2022-12-26T10:32:56.987Z,22.50
2022-12-26T10:33:57.150Z,22.50
2022-12-26T10:34:57.316Z,22.50
2022-12-26T10:35:57.492Z,22.50
2022-12-26T10:36:57.655Z,16.88
2022-12-26T10:37:57.837Z,16.88
2022-12-26T10:38:58.012Z,16.88
2022-12-26T10:39:58.178Z,16.88
2022-12-26T10:40:58.348Z,16.88
2022-12-26T10:41:58.546Z,16.88
2022-12-26T10:42:58.691Z,16.88
2022-12-26T10:43:58.868Z,16.88
2022-12-26T10:44:59.038Z,16.88
2022-12-26T10:45:59.294Z,16.88
2022-12-26T10:46:59.363Z,16.88
2022-12-26T10:47:59.510Z,16.88
2022-12-26T10:48:59.665Z,16.88
2022-12-26T10:49:59.880Z,16.88
2022-12-26T10:51:00.028Z,16.88
2022-12-26T10:52:00.216Z,16.88
2022-12-26T10:53:00.352Z,16.88
2022-12-26T10:54:00.540Z,16.88
2022-12-26T10:55:28.447Z,16.88
2022-12-26T10:56:01.945Z,16.88
2022-12-26T10:57:01.068Z,11.25
2022-12-26T10:58:01.207Z,11.25
2022-12-26T10:59:01.356Z,11.25
2022-12-26T11:00:01.643Z,11.25
2022-12-26T11:01:01.705Z,16.88
2022-12-26T11:02:06.688Z,16.88
2022-12-26T11:03:03.074Z,16.88
2022-12-26T11:04:02.258Z,16.88
2022-12-26T11:06:07.972Z,16.88
2022-12-26T11:08:18.836Z,11.25
2022-12-26T11:09:18.987Z,11.25
2022-12-26T11:10:19.178Z,11.25
2022-12-26T11:11:19.372Z,11.25
2022-12-26T11:12:19.549Z,11.25
2022-12-26T11:13:19.730Z,11.25
2022-12-26T11:14:19.887Z,11.25
2022-12-26T11:15:20.073Z,11.25
2022-12-26T11:16:20.251Z,11.25
2022-12-26T11:17:20.397Z,11.25
2022-12-26T11:18:20.572Z,11.25
2022-12-26T11:19:20.743Z,11.25
2022-12-26T11:20:20.895Z,11.25
2022-12-26T11:21:21.079Z,11.25
2022-12-26T11:22:21.491Z,11.25
2022-12-26T11:23:21.443Z,11.25
2022-12-26T11:24:21.600Z,11.25
2022-12-26T11:25:21.752Z,11.25
2022-12-26T11:26:21.912Z,11.25
2022-12-26T11:27:22.135Z,11.25
2022-12-26T11:28:22.263Z,11.25
2022-12-26T11:29:22.425Z,11.25
2022-12-26T11:30:22.587Z,11.25
2022-12-26T11:31:22.777Z,11.25
2022-12-26T11:32:22.952Z,11.25
2022-12-26T11:33:23.133Z,11.25
2022-12-26T11:34:23.276Z,16.88
2022-12-26T11:35:23.439Z,16.88
2022-12-26T11:36:23.591Z,16.88
2022-12-26T11:37:23.827Z,16.88
2022-12-26T11:38:23.956Z,16.88
2022-12-26T11:39:24.121Z,16.88
2022-12-26T11:40:24.266Z,16.88
2022-12-26T11:41:24.457Z,16.88
2022-12-26T11:42:24.640Z,16.88
2022-12-26T11:43:24.807Z,16.88
2022-12-26T11:44:24.999Z,16.88
2022-12-26T11:45:25.171Z,16.88
2022-12-26T11:46:25.343Z,16.88
2022-12-26T11:47:25.513Z,16.88
2022-12-26T11:48:25.633Z,16.88
2022-12-26T11:49:25.831Z,16.88
2022-12-26T11:50:25.989Z,16.88
2022-12-26T11:51:26.159Z,16.88
2022-12-26T11:52:26.346Z,16.88
2022-12-26T11:53:26.535Z,16.88
2022-12-26T11:54:26.710Z,16.88
2022-12-26T11:55:26.875Z,16.88
2022-12-26T11:56:27.038Z,16.88
2022-12-26T11:57:27.216Z,16.88
2022-12-26T11:58:27.374Z,11.25
2022-12-26T11:59:27.534Z,11.25
2022-12-26T12:00:27.706Z,11.25
2022-12-26T12:01:27.910Z,11.25
2022-12-26T12:02:28.094Z,11.25
2022-12-26T12:03:28.307Z,11.25
2022-12-26T12:04:28.428Z,11.25
2022-12-26T12:05:28.601Z,16.88
2022-12-26T12:06:28.864Z,11.25
2022-12-26T12:07:28.903Z,11.25
2022-12-26T12:08:29.115Z,11.25
2022-12-26T12:09:29.285Z,11.25
2022-12-26T12:10:29.445Z,11.25
2022-12-26T12:11:29.616Z,11.25
2022-12-26T12:12:29.779Z,11.25
2022-12-26T12:13:29.958Z,11.25
2022-12-26T12:14:30.149Z,11.25
2022-12-26T12:15:30.314Z,11.25
2022-12-26T12:16:30.533Z,11.25
2022-12-26T12:17:30.713Z,11.25
2022-12-26T12:18:30.859Z,11.25
2022-12-26T12:19:31.052Z,5.62
2022-12-26T12:20:31.188Z,5.62
2022-12-26T12:21:31.361Z,5.62
2022-12-26T12:22:31.552Z,5.62
2022-12-26T12:23:31.708Z,5.62
2022-12-26T12:24:31.874Z,5.62
2022-12-26T12:25:32.009Z,5.62
2022-12-26T12:26:32.218Z,5.62
2022-12-26T12:27:32.370Z,11.25
2022-12-26T12:28:32.570Z,11.25
2022-12-26T12:29:32.681Z,11.25
2022-12-26T12:30:32.918Z,11.25
2022-12-26T12:31:33.142Z,11.25
2022-12-26T12:32:33.271Z,11.25
2022-12-26T12:33:33.441Z,16.88
2022-12-26T12:34:33.591Z,16.88
2022-12-26T12:35:33.757Z,16.88
2022-12-26T12:36:33.923Z,16.88
2022-12-26T12:37:34.077Z,22.50
2022-12-26T12:38:34.281Z,22.50
2022-12-26T12:39:34.464Z,22.50
2022-12-26T12:40:34.613Z,22.50
2022-12-26T12:41:34.775Z,22.50
2022-12-26T12:42:34.931Z,22.50
2022-12-26T12:43:35.143Z,22.50
2022-12-26T12:44:35.321Z,22.50
2022-12-26T12:45:35.523Z,22.50
2022-12-26T12:46:35.656Z,22.50
2022-12-26T12:47:35.824Z,22.50
2022-12-26T12:48:36.004Z,22.50
2022-12-26T12:49:36.134Z,22.50
2022-12-26T12:50:36.295Z,22.50
2022-12-26T12:51:36.456Z,22.50
2022-12-26T12:52:36.624Z,22.50
2022-12-26T12:53:36.796Z,22.50
2022-12-26T12:54:36.976Z,22.50
2022-12-26T12:55:37.145Z,22.50
2022-12-26T12:56:42.151Z,22.50
2022-12-26T12:57:38.478Z,28.12
2022-12-26T12:58:37.641Z,28.12
2022-12-26T12:59:37.843Z,28.12
2022-12-26T13:00:38.030Z,22.50
2022-12-26T13:01:38.241Z,22.50
2022-12-26T13:02:38.431Z,28.12
2022-12-26T13:03:38.530Z,33.75
2022-12-26T13:04:38.718Z,39.38
2022-12-26T13:05:38.856Z,28.12
2022-12-26T13:06:39.064Z,22.50
2022-12-26T13:07:43.408Z,16.88
2022-12-26T13:08:40.392Z,16.88
2022-12-26T13:09:39.575Z,16.88
2022-12-26T13:10:39.740Z,16.88
2022-12-26T13:11:39.912Z,22.50
2022-12-26T13:12:40.086Z,22.50
2022-12-26T13:13:40.246Z,22.50
2022-12-26T13:14:40.404Z,28.12